sensor_id;sensor_type;location;lat;lon;timestamp;P1;durP1;ratioP1;P2;durP2;ratioP2
7316;SDS011;3699;51.462;6.696;2023-05-10T00:00:07;18.13;;;11.90;;
7316;SDS011;3699;51.462;6.696;2023-05-10T00:02:36;16.27;;;11.30;;
7316;SDS011;3699;51.462;6.696;2023-05-10T00:05:04;13.97;;;9.27;;
7316;SDS011;3699;51.462;6.696;2023-05-10T00:07:31;12.23;;;8.90;;
7316;SDS011;3699;51.462;6.696;2023-05-10T00:09:57;11.70;;;8.50;;
7316;SDS011;3699;51.462;6.696;2023-05-10T00:12:24;13.60;;;9.67;;
7316;SDS011;3699;51.462;6.696;2023-05-10T00:14:51;16.70;;;10.80;;
7316;SDS011;3699;51.462;6.696;2023-05-10T00:17:18;15.87;;;10.47;;
7316;SDS011;3699;51.462;6.696;2023-05-10T00:19:46;16.47;;;11.17;;
7316;SDS011;3699;51.462;6.696;2023-05-10T00:22:13;17.77;;;10.97;;
7316;SDS011;3699;51.462;6.696;2023-05-10T00:24:40;15.50;;;10.93;;
7316;SDS011;3699;51.462;6.696;2023-05-10T00:27:06;15.17;;;10.97;;
7316;SDS011;3699;51.462;6.696;2023-05-10T00:29:33;15.70;;;10.03;;
7316;SDS011;3699;51.462;6.696;2023-05-10T00:32:00;18.33;;;11.27;;
7316;SDS011;3699;51.462;6.696;2023-05-10T00:34:27;21.37;;;11.37;;
7316;SDS011;3699;51.462;6.696;2023-05-10T00:36:55;16.53;;;11.23;;
7316;SDS011;3699;51.462;6.696;2023-05-10T00:39:22;21.10;;;12.80;;
7316;SDS011;3699;51.462;6.696;2023-05-10T00:41:48;17.37;;;11.93;;
7316;SDS011;3699;51.462;6.696;2023-05-10T00:44:15;16.83;;;11.53;;
7316;SDS011;3699;51.462;6.696;2023-05-10T00:46:43;19.53;;;11.77;;
7316;SDS011;3699;51.462;6.696;2023-05-10T00:49:10;21.77;;;12.20;;
7316;SDS011;3699;51.462;6.696;2023-05-10T00:51:37;18.23;;;10.90;;
7316;SDS011;3699;51.462;6.696;2023-05-10T00:54:06;17.10;;;11.13;;
7316;SDS011;3699;51.462;6.696;2023-05-10T00:56:33;16.70;;;10.67;;
7316;SDS011;3699;51.462;6.696;2023-05-10T00:59:00;17.40;;;10.87;;
7316;SDS011;3699;51.462;6.696;2023-05-10T01:01:27;21.30;;;12.47;;
7316;SDS011;3699;51.462;6.696;2023-05-10T01:03:54;20.30;;;12.67;;
7316;SDS011;3699;51.462;6.696;2023-05-10T01:06:22;18.20;;;11.67;;
7316;SDS011;3699;51.462;6.696;2023-05-10T01:08:48;19.57;;;12.30;;
7316;SDS011;3699;51.462;6.696;2023-05-10T01:11:17;21.97;;;13.03;;
7316;SDS011;3699;51.462;6.696;2023-05-10T01:13:43;18.47;;;12.10;;
7316;SDS011;3699;51.462;6.696;2023-05-10T01:16:15;16.90;;;10.97;;
7316;SDS011;3699;51.462;6.696;2023-05-10T01:18:42;16.63;;;11.33;;
7316;SDS011;3699;51.462;6.696;2023-05-10T01:21:14;18.80;;;12.27;;
7316;SDS011;3699;51.462;6.696;2023-05-10T01:27:19;22.23;;;12.70;;
7316;SDS011;3699;51.462;6.696;2023-05-10T01:30:01;16.43;;;10.37;;
7316;SDS011;3699;51.462;6.696;2023-05-10T01:32:43;20.33;;;13.27;;
7316;SDS011;3699;51.462;6.696;2023-05-10T01:35:17;15.03;;;11.63;;
7316;SDS011;3699;51.462;6.696;2023-05-10T01:37:50;17.57;;;11.17;;
7316;SDS011;3699;51.462;6.696;2023-05-10T01:40:26;17.00;;;11.07;;
7316;SDS011;3699;51.462;6.696;2023-05-10T01:42:59;18.87;;;11.20;;
7316;SDS011;3699;51.462;6.696;2023-05-10T01:45:28;18.20;;;11.53;;
7316;SDS011;3699;51.462;6.696;2023-05-10T01:48:03;17.73;;;11.17;;
7316;SDS011;3699;51.462;6.696;2023-05-10T01:50:32;19.30;;;11.70;;
7316;SDS011;3699;51.462;6.696;2023-05-10T01:53:02;19.17;;;12.33;;
7316;SDS011;3699;51.462;6.696;2023-05-10T01:55:35;18.97;;;12.30;;
7316;SDS011;3699;51.462;6.696;2023-05-10T01:58:06;19.67;;;12.87;;
7316;SDS011;3699;51.462;6.696;2023-05-10T02:00:36;22.77;;;13.23;;
7316;SDS011;3699;51.462;6.696;2023-05-10T02:03:10;22.60;;;13.53;;
7316;SDS011;3699;51.462;6.696;2023-05-10T02:05:38;23.07;;;13.70;;
7316;SDS011;3699;51.462;6.696;2023-05-10T02:08:06;25.57;;;14.20;;
7316;SDS011;3699;51.462;6.696;2023-05-10T02:10:34;24.03;;;15.40;;
7316;SDS011;3699;51.462;6.696;2023-05-10T02:13:02;22.50;;;14.00;;
7316;SDS011;3699;51.462;6.696;2023-05-10T02:15:31;22.60;;;14.30;;
7316;SDS011;3699;51.462;6.696;2023-05-10T02:18:00;20.93;;;13.53;;
7316;SDS011;3699;51.462;6.696;2023-05-10T02:20:29;25.10;;;14.17;;
7316;SDS011;3699;51.462;6.696;2023-05-10T02:22:58;23.23;;;15.07;;
7316;SDS011;3699;51.462;6.696;2023-05-10T02:25:27;27.57;;;15.30;;
7316;SDS011;3699;51.462;6.696;2023-05-10T02:27:55;29.03;;;15.00;;
7316;SDS011;3699;51.462;6.696;2023-05-10T02:30:23;29.50;;;14.67;;
7316;SDS011;3699;51.462;6.696;2023-05-10T02:32:51;26.10;;;14.60;;
7316;SDS011;3699;51.462;6.696;2023-05-10T02:35:18;25.10;;;15.13;;
7316;SDS011;3699;51.462;6.696;2023-05-10T02:37:46;24.20;;;15.03;;
7316;SDS011;3699;51.462;6.696;2023-05-10T02:40:14;28.70;;;16.03;;
7316;SDS011;3699;51.462;6.696;2023-05-10T02:42:43;26.57;;;15.33;;
7316;SDS011;3699;51.462;6.696;2023-05-10T02:45:15;27.13;;;15.40;;
7316;SDS011;3699;51.462;6.696;2023-05-10T02:47:45;22.33;;;13.93;;
7316;SDS011;3699;51.462;6.696;2023-05-10T02:50:12;23.30;;;13.73;;
7316;SDS011;3699;51.462;6.696;2023-05-10T02:52:40;27.07;;;15.63;;
7316;SDS011;3699;51.462;6.696;2023-05-10T02:55:14;27.07;;;15.17;;
7316;SDS011;3699;51.462;6.696;2023-05-10T02:57:43;24.07;;;14.73;;
7316;SDS011;3699;51.462;6.696;2023-05-10T03:00:14;25.27;;;15.47;;
7316;SDS011;3699;51.462;6.696;2023-05-10T03:02:41;27.27;;;14.70;;
7316;SDS011;3699;51.462;6.696;2023-05-10T03:05:08;26.70;;;13.73;;
7316;SDS011;3699;51.462;6.696;2023-05-10T03:07:35;21.97;;;13.13;;
7316;SDS011;3699;51.462;6.696;2023-05-10T03:10:03;25.17;;;14.50;;
7316;SDS011;3699;51.462;6.696;2023-05-10T03:12:33;26.83;;;15.70;;
7316;SDS011;3699;51.462;6.696;2023-05-10T03:15:13;23.67;;;14.57;;
7316;SDS011;3699;51.462;6.696;2023-05-10T03:17:46;27.20;;;14.60;;
7316;SDS011;3699;51.462;6.696;2023-05-10T03:20:20;24.20;;;13.80;;
7316;SDS011;3699;51.462;6.696;2023-05-10T03:22:51;25.63;;;14.43;;
7316;SDS011;3699;51.462;6.696;2023-05-10T03:25:19;27.23;;;13.50;;
7316;SDS011;3699;51.462;6.696;2023-05-10T03:27:49;20.33;;;12.77;;
7316;SDS011;3699;51.462;6.696;2023-05-10T03:30:16;22.07;;;12.50;;
7316;SDS011;3699;51.462;6.696;2023-05-10T03:32:43;23.47;;;13.10;;
7316;SDS011;3699;51.462;6.696;2023-05-10T03:35:10;22.93;;;13.17;;
7316;SDS011;3699;51.462;6.696;2023-05-10T03:37:38;26.47;;;14.03;;
7316;SDS011;3699;51.462;6.696;2023-05-10T03:40:05;23.27;;;13.07;;
7316;SDS011;3699;51.462;6.696;2023-05-10T03:42:33;23.90;;;13.13;;
7316;SDS011;3699;51.462;6.696;2023-05-10T03:45:02;24.27;;;13.53;;
7316;SDS011;3699;51.462;6.696;2023-05-10T03:47:29;25.70;;;14.40;;
7316;SDS011;3699;51.462;6.696;2023-05-10T03:49:56;24.23;;;14.20;;
7316;SDS011;3699;51.462;6.696;2023-05-10T03:52:23;25.47;;;14.20;;
7316;SDS011;3699;51.462;6.696;2023-05-10T03:54:50;26.00;;;14.10;;
7316;SDS011;3699;51.462;6.696;2023-05-10T03:57:17;26.50;;;15.20;;
7316;SDS011;3699;51.462;6.696;2023-05-10T03:59:43;24.97;;;15.10;;
7316;SDS011;3699;51.462;6.696;2023-05-10T04:02:11;25.80;;;14.73;;
7316;SDS011;3699;51.462;6.696;2023-05-10T04:04:38;29.13;;;15.83;;
7316;SDS011;3699;51.462;6.696;2023-05-10T04:07:05;31.90;;;16.50;;
7316;SDS011;3699;51.462;6.696;2023-05-10T04:09:32;30.30;;;16.40;;
7316;SDS011;3699;51.462;6.696;2023-05-10T04:11:59;26.50;;;14.97;;
7316;SDS011;3699;51.462;6.696;2023-05-10T04:14:27;28.63;;;15.40;;
7316;SDS011;3699;51.462;6.696;2023-05-10T04:16:54;26.97;;;15.07;;
7316;SDS011;3699;51.462;6.696;2023-05-10T04:19:22;26.13;;;14.40;;
7316;SDS011;3699;51.462;6.696;2023-05-10T04:21:49;30.43;;;15.93;;
7316;SDS011;3699;51.462;6.696;2023-05-10T04:24:15;28.50;;;15.47;;
7316;SDS011;3699;51.462;6.696;2023-05-10T04:26:42;27.57;;;15.93;;
7316;SDS011;3699;51.462;6.696;2023-05-10T04:29:09;28.80;;;15.70;;
7316;SDS011;3699;51.462;6.696;2023-05-10T04:31:35;31.97;;;16.50;;
7316;SDS011;3699;51.462;6.696;2023-05-10T04:34:02;31.47;;;16.67;;
7316;SDS011;3699;51.462;6.696;2023-05-10T04:36:31;30.73;;;16.43;;
7316;SDS011;3699;51.462;6.696;2023-05-10T04:39:00;36.50;;;18.30;;
7316;SDS011;3699;51.462;6.696;2023-05-10T04:41:27;35.70;;;18.53;;
7316;SDS011;3699;51.462;6.696;2023-05-10T04:43:54;34.20;;;17.40;;
7316;SDS011;3699;51.462;6.696;2023-05-10T04:46:21;33.10;;;18.00;;
7316;SDS011;3699;51.462;6.696;2023-05-10T04:48:48;31.87;;;17.37;;
7316;SDS011;3699;51.462;6.696;2023-05-10T04:51:15;33.60;;;19.27;;
7316;SDS011;3699;51.462;6.696;2023-05-10T04:53:43;35.60;;;18.90;;
7316;SDS011;3699;51.462;6.696;2023-05-10T04:56:09;33.73;;;18.87;;
7316;SDS011;3699;51.462;6.696;2023-05-10T04:58:36;38.73;;;20.03;;
7316;SDS011;3699;51.462;6.696;2023-05-10T05:01:06;43.33;;;20.73;;
7316;SDS011;3699;51.462;6.696;2023-05-10T05:03:34;37.47;;;19.00;;
7316;SDS011;3699;51.462;6.696;2023-05-10T05:06:02;41.70;;;21.47;;
7316;SDS011;3699;51.462;6.696;2023-05-10T05:08:29;35.70;;;19.80;;
7316;SDS011;3699;51.462;6.696;2023-05-10T05:10:57;37.50;;;20.47;;
7316;SDS011;3699;51.462;6.696;2023-05-10T05:13:24;42.63;;;22.10;;
7316;SDS011;3699;51.462;6.696;2023-05-10T05:15:51;40.03;;;21.93;;
7316;SDS011;3699;51.462;6.696;2023-05-10T05:18:18;46.13;;;22.90;;
7316;SDS011;3699;51.462;6.696;2023-05-10T05:20:45;41.73;;;22.27;;
7316;SDS011;3699;51.462;6.696;2023-05-10T05:23:12;41.13;;;21.57;;
7316;SDS011;3699;51.462;6.696;2023-05-10T05:25:39;42.13;;;22.97;;
7316;SDS011;3699;51.462;6.696;2023-05-10T05:28:07;39.90;;;22.00;;
7316;SDS011;3699;51.462;6.696;2023-05-10T05:30:33;37.90;;;21.27;;
7316;SDS011;3699;51.462;6.696;2023-05-10T05:33:00;39.73;;;21.60;;
7316;SDS011;3699;51.462;6.696;2023-05-10T05:35:27;46.87;;;22.57;;
7316;SDS011;3699;51.462;6.696;2023-05-10T05:37:53;40.00;;;22.97;;
7316;SDS011;3699;51.462;6.696;2023-05-10T05:40:20;45.23;;;23.87;;
7316;SDS011;3699;51.462;6.696;2023-05-10T05:42:47;48.80;;;23.67;;
7316;SDS011;3699;51.462;6.696;2023-05-10T05:45:16;50.53;;;25.60;;
7316;SDS011;3699;51.462;6.696;2023-05-10T05:47:42;48.83;;;25.73;;
7316;SDS011;3699;51.462;6.696;2023-05-10T05:50:09;47.83;;;24.93;;
7316;SDS011;3699;51.462;6.696;2023-05-10T05:52:36;49.67;;;24.53;;
7316;SDS011;3699;51.462;6.696;2023-05-10T05:55:03;50.80;;;27.70;;
7316;SDS011;3699;51.462;6.696;2023-05-10T05:57:31;54.50;;;26.60;;
7316;SDS011;3699;51.462;6.696;2023-05-10T05:59:57;55.93;;;27.40;;
7316;SDS011;3699;51.462;6.696;2023-05-10T06:02:25;47.07;;;24.97;;
7316;SDS011;3699;51.462;6.696;2023-05-10T06:04:52;52.70;;;27.93;;
7316;SDS011;3699;51.462;6.696;2023-05-10T06:07:19;52.13;;;26.20;;
7316;SDS011;3699;51.462;6.696;2023-05-10T06:09:46;49.80;;;26.00;;
7316;SDS011;3699;51.462;6.696;2023-05-10T06:12:13;50.00;;;25.03;;
7316;SDS011;3699;51.462;6.696;2023-05-10T06:14:40;54.60;;;24.90;;
7316;SDS011;3699;51.462;6.696;2023-05-10T06:17:06;53.37;;;25.63;;
7316;SDS011;3699;51.462;6.696;2023-05-10T06:19:35;46.50;;;25.40;;
7316;SDS011;3699;51.462;6.696;2023-05-10T06:22:01;54.63;;;26.83;;
7316;SDS011;3699;51.462;6.696;2023-05-10T06:24:28;46.53;;;25.40;;
7316;SDS011;3699;51.462;6.696;2023-05-10T06:26:55;53.47;;;25.20;;
7316;SDS011;3699;51.462;6.696;2023-05-10T06:29:25;49.80;;;24.20;;
7316;SDS011;3699;51.462;6.696;2023-05-10T06:31:51;56.40;;;26.43;;
7316;SDS011;3699;51.462;6.696;2023-05-10T06:34:19;53.87;;;26.40;;
7316;SDS011;3699;51.462;6.696;2023-05-10T06:36:47;49.03;;;25.47;;
7316;SDS011;3699;51.462;6.696;2023-05-10T06:39:14;60.20;;;27.43;;
7316;SDS011;3699;51.462;6.696;2023-05-10T06:41:41;50.83;;;25.73;;
7316;SDS011;3699;51.462;6.696;2023-05-10T06:44:08;51.27;;;26.90;;
7316;SDS011;3699;51.462;6.696;2023-05-10T06:46:35;57.27;;;26.97;;
7316;SDS011;3699;51.462;6.696;2023-05-10T06:49:02;51.60;;;24.90;;
7316;SDS011;3699;51.462;6.696;2023-05-10T06:51:29;53.13;;;26.50;;
7316;SDS011;3699;51.462;6.696;2023-05-10T06:53:57;52.13;;;25.80;;
7316;SDS011;3699;51.462;6.696;2023-05-10T06:56:24;51.67;;;26.00;;
7316;SDS011;3699;51.462;6.696;2023-05-10T06:58:51;53.13;;;26.07;;
7316;SDS011;3699;51.462;6.696;2023-05-10T07:01:18;53.17;;;25.67;;
7316;SDS011;3699;51.462;6.696;2023-05-10T07:03:45;57.13;;;27.17;;
7316;SDS011;3699;51.462;6.696;2023-05-10T07:06:12;48.97;;;25.10;;
7316;SDS011;3699;51.462;6.696;2023-05-10T07:08:39;53.53;;;26.30;;
7316;SDS011;3699;51.462;6.696;2023-05-10T07:11:08;52.13;;;25.13;;
7316;SDS011;3699;51.462;6.696;2023-05-10T07:13:35;54.93;;;24.93;;
7316;SDS011;3699;51.462;6.696;2023-05-10T07:16:04;49.33;;;25.57;;
7316;SDS011;3699;51.462;6.696;2023-05-10T07:18:31;54.40;;;24.60;;
7316;SDS011;3699;51.462;6.696;2023-05-10T07:20:58;43.57;;;22.63;;
7316;SDS011;3699;51.462;6.696;2023-05-10T07:23:25;46.40;;;23.23;;
7316;SDS011;3699;51.462;6.696;2023-05-10T07:25:51;43.57;;;23.13;;
7316;SDS011;3699;51.462;6.696;2023-05-10T07:28:20;46.00;;;22.93;;
7316;SDS011;3699;51.462;6.696;2023-05-10T07:30:46;48.50;;;23.73;;
7316;SDS011;3699;51.462;6.696;2023-05-10T07:33:14;49.63;;;23.70;;
7316;SDS011;3699;51.462;6.696;2023-05-10T07:35:40;50.17;;;23.70;;
7316;SDS011;3699;51.462;6.696;2023-05-10T07:38:07;52.93;;;25.40;;
7316;SDS011;3699;51.462;6.696;2023-05-10T07:40:36;51.13;;;25.43;;
7316;SDS011;3699;51.462;6.696;2023-05-10T07:43:04;47.13;;;24.10;;
7316;SDS011;3699;51.462;6.696;2023-05-10T07:45:32;49.90;;;24.10;;
7316;SDS011;3699;51.462;6.696;2023-05-10T07:47:59;48.47;;;24.17;;
7316;SDS011;3699;51.462;6.696;2023-05-10T07:50:26;48.50;;;24.43;;
7316;SDS011;3699;51.462;6.696;2023-05-10T07:52:53;46.00;;;24.50;;
7316;SDS011;3699;51.462;6.696;2023-05-10T07:55:20;48.60;;;26.60;;
7316;SDS011;3699;51.462;6.696;2023-05-10T07:57:47;42.47;;;23.03;;
7316;SDS011;3699;51.462;6.696;2023-05-10T08:00:14;44.57;;;23.83;;
7316;SDS011;3699;51.462;6.696;2023-05-10T08:02:45;41.27;;;21.33;;
7316;SDS011;3699;51.462;6.696;2023-05-10T08:05:12;43.50;;;23.13;;
7316;SDS011;3699;51.462;6.696;2023-05-10T08:07:42;46.70;;;21.30;;
7316;SDS011;3699;51.462;6.696;2023-05-10T08:10:09;45.73;;;22.70;;
7316;SDS011;3699;51.462;6.696;2023-05-10T08:12:37;50.40;;;24.03;;
7316;SDS011;3699;51.462;6.696;2023-05-10T08:15:04;43.67;;;22.27;;
7316;SDS011;3699;51.462;6.696;2023-05-10T08:17:31;39.23;;;21.30;;
7316;SDS011;3699;51.462;6.696;2023-05-10T08:19:59;43.37;;;20.73;;
7316;SDS011;3699;51.462;6.696;2023-05-10T08:22:26;41.00;;;22.17;;
7316;SDS011;3699;51.462;6.696;2023-05-10T08:24:53;41.70;;;20.67;;
7316;SDS011;3699;51.462;6.696;2023-05-10T08:27:20;32.33;;;19.13;;
7316;SDS011;3699;51.462;6.696;2023-05-10T08:29:46;36.00;;;18.97;;
7316;SDS011;3699;51.462;6.696;2023-05-10T08:32:13;34.50;;;19.93;;
7316;SDS011;3699;51.462;6.696;2023-05-10T08:34:40;31.97;;;17.97;;
7316;SDS011;3699;51.462;6.696;2023-05-10T08:37:08;35.90;;;19.27;;
7316;SDS011;3699;51.462;6.696;2023-05-10T08:39:37;35.83;;;20.00;;
7316;SDS011;3699;51.462;6.696;2023-05-10T08:42:04;33.10;;;18.43;;
7316;SDS011;3699;51.462;6.696;2023-05-10T08:44:32;36.93;;;19.50;;
7316;SDS011;3699;51.462;6.696;2023-05-10T08:47:00;30.43;;;18.73;;
7316;SDS011;3699;51.462;6.696;2023-05-10T08:49:31;34.20;;;19.47;;
7316;SDS011;3699;51.462;6.696;2023-05-10T08:51:59;30.30;;;19.37;;
7316;SDS011;3699;51.462;6.696;2023-05-10T08:54:30;33.77;;;19.50;;
7316;SDS011;3699;51.462;6.696;2023-05-10T08:56:58;33.27;;;18.30;;
7316;SDS011;3699;51.462;6.696;2023-05-10T08:59:25;30.73;;;18.10;;
7316;SDS011;3699;51.462;6.696;2023-05-10T09:01:51;32.03;;;18.63;;
7316;SDS011;3699;51.462;6.696;2023-05-10T09:04:20;26.93;;;16.77;;
7316;SDS011;3699;51.462;6.696;2023-05-10T09:06:47;25.87;;;15.27;;
7316;SDS011;3699;51.462;6.696;2023-05-10T09:09:14;19.43;;;12.97;;
7316;SDS011;3699;51.462;6.696;2023-05-10T09:11:42;19.57;;;12.53;;
7316;SDS011;3699;51.462;6.696;2023-05-10T09:14:10;22.00;;;12.63;;
7316;SDS011;3699;51.462;6.696;2023-05-10T09:16:40;23.50;;;13.80;;
7316;SDS011;3699;51.462;6.696;2023-05-10T09:19:07;19.77;;;12.63;;
7316;SDS011;3699;51.462;6.696;2023-05-10T09:21:35;19.23;;;12.87;;
7316;SDS011;3699;51.462;6.696;2023-05-10T09:24:03;26.77;;;14.50;;
7316;SDS011;3699;51.462;6.696;2023-05-10T09:26:30;23.30;;;13.60;;
7316;SDS011;3699;51.462;6.696;2023-05-10T09:28:59;23.70;;;14.30;;
7316;SDS011;3699;51.462;6.696;2023-05-10T09:31:42;20.37;;;13.37;;
7316;SDS011;3699;51.462;6.696;2023-05-10T09:34:11;19.77;;;13.37;;
7316;SDS011;3699;51.462;6.696;2023-05-10T09:39:32;20.83;;;14.03;;
7316;SDS011;3699;51.462;6.696;2023-05-10T09:41:59;22.90;;;15.43;;
7316;SDS011;3699;51.462;6.696;2023-05-10T09:44:30;27.23;;;16.37;;
7316;SDS011;3699;51.462;6.696;2023-05-10T09:46:57;25.47;;;15.60;;
7316;SDS011;3699;51.462;6.696;2023-05-10T09:49:24;26.40;;;15.80;;
7316;SDS011;3699;51.462;6.696;2023-05-10T09:51:59;26.17;;;15.70;;
7316;SDS011;3699;51.462;6.696;2023-05-10T09:54:27;26.97;;;16.00;;
7316;SDS011;3699;51.462;6.696;2023-05-10T09:56:54;26.80;;;15.23;;
7316;SDS011;3699;51.462;6.696;2023-05-10T09:59:21;29.63;;;17.23;;
7316;SDS011;3699;51.462;6.696;2023-05-10T10:01:52;25.20;;;16.10;;
7316;SDS011;3699;51.462;6.696;2023-05-10T10:04:21;25.70;;;15.03;;
7316;SDS011;3699;51.462;6.696;2023-05-10T10:06:57;24.50;;;15.20;;
7316;SDS011;3699;51.462;6.696;2023-05-10T10:09:25;25.20;;;16.07;;
7316;SDS011;3699;51.462;6.696;2023-05-10T10:11:52;21.80;;;14.50;;
7316;SDS011;3699;51.462;6.696;2023-05-10T10:14:21;23.07;;;14.83;;
7316;SDS011;3699;51.462;6.696;2023-05-10T10:16:48;22.00;;;13.57;;
7316;SDS011;3699;51.462;6.696;2023-05-10T10:19:16;24.80;;;14.70;;
7316;SDS011;3699;51.462;6.696;2023-05-10T10:21:44;26.27;;;14.90;;
7316;SDS011;3699;51.462;6.696;2023-05-10T10:24:10;23.17;;;14.63;;
7316;SDS011;3699;51.462;6.696;2023-05-10T10:26:37;24.20;;;14.63;;
7316;SDS011;3699;51.462;6.696;2023-05-10T10:29:09;24.53;;;14.83;;
7316;SDS011;3699;51.462;6.696;2023-05-10T10:31:45;24.83;;;14.37;;
7316;SDS011;3699;51.462;6.696;2023-05-10T10:34:20;23.70;;;14.40;;
7316;SDS011;3699;51.462;6.696;2023-05-10T10:36:52;25.97;;;15.37;;
7316;SDS011;3699;51.462;6.696;2023-05-10T10:39:19;26.67;;;15.70;;
7316;SDS011;3699;51.462;6.696;2023-05-10T10:41:50;22.43;;;14.83;;
7316;SDS011;3699;51.462;6.696;2023-05-10T10:47:22;25.17;;;15.53;;
7316;SDS011;3699;51.462;6.696;2023-05-10T10:49:51;32.73;;;15.97;;
7316;SDS011;3699;51.462;6.696;2023-05-10T10:52:30;20.33;;;14.53;;
7316;SDS011;3699;51.462;6.696;2023-05-10T10:54:59;24.47;;;15.60;;
7316;SDS011;3699;51.462;6.696;2023-05-10T10:57:28;20.10;;;14.43;;
7316;SDS011;3699;51.462;6.696;2023-05-10T11:02:44;24.93;;;15.73;;
7316;SDS011;3699;51.462;6.696;2023-05-10T11:05:24;24.33;;;14.77;;
7316;SDS011;3699;51.462;6.696;2023-05-10T11:08:00;23.37;;;15.30;;
7316;SDS011;3699;51.462;6.696;2023-05-10T11:10:33;19.23;;;13.43;;
7316;SDS011;3699;51.462;6.696;2023-05-10T11:13:00;17.33;;;13.33;;
7316;SDS011;3699;51.462;6.696;2023-05-10T11:15:29;19.10;;;14.13;;
7316;SDS011;3699;51.462;6.696;2023-05-10T11:17:56;18.40;;;14.13;;
7316;SDS011;3699;51.462;6.696;2023-05-10T11:20:24;17.83;;;13.33;;
7316;SDS011;3699;51.462;6.696;2023-05-10T11:22:58;22.57;;;14.83;;
7316;SDS011;3699;51.462;6.696;2023-05-10T11:25:40;23.80;;;14.37;;
7316;SDS011;3699;51.462;6.696;2023-05-10T11:28:09;20.93;;;11.77;;
7316;SDS011;3699;51.462;6.696;2023-05-10T11:30:36;19.93;;;12.97;;
7316;SDS011;3699;51.462;6.696;2023-05-10T11:33:03;19.03;;;12.03;;
7316;SDS011;3699;51.462;6.696;2023-05-10T11:35:32;16.70;;;11.60;;
7316;SDS011;3699;51.462;6.696;2023-05-10T11:38:05;14.97;;;11.27;;
7316;SDS011;3699;51.462;6.696;2023-05-10T11:40:32;19.90;;;12.90;;
7316;SDS011;3699;51.462;6.696;2023-05-10T11:42:59;15.50;;;10.93;;
7316;SDS011;3699;51.462;6.696;2023-05-10T11:45:26;16.53;;;10.50;;
7316;SDS011;3699;51.462;6.696;2023-05-10T11:47:54;14.03;;;9.80;;
7316;SDS011;3699;51.462;6.696;2023-05-10T11:50:21;15.90;;;9.63;;
7316;SDS011;3699;51.462;6.696;2023-05-10T11:52:51;13.27;;;8.13;;
7316;SDS011;3699;51.462;6.696;2023-05-10T11:55:18;16.00;;;9.23;;
7316;SDS011;3699;51.462;6.696;2023-05-10T11:57:45;12.43;;;9.00;;
7316;SDS011;3699;51.462;6.696;2023-05-10T12:00:12;14.73;;;8.90;;
7316;SDS011;3699;51.462;6.696;2023-05-10T12:02:40;17.87;;;9.33;;
7316;SDS011;3699;51.462;6.696;2023-05-10T12:05:07;12.50;;;8.47;;
7316;SDS011;3699;51.462;6.696;2023-05-10T12:07:35;16.97;;;9.53;;
7316;SDS011;3699;51.462;6.696;2023-05-10T12:10:04;12.70;;;8.43;;
7316;SDS011;3699;51.462;6.696;2023-05-10T12:12:36;11.53;;;8.53;;
7316;SDS011;3699;51.462;6.696;2023-05-10T12:15:05;14.40;;;8.77;;
7316;SDS011;3699;51.462;6.696;2023-05-10T12:17:37;11.00;;;8.00;;
7316;SDS011;3699;51.462;6.696;2023-05-10T12:20:14;12.87;;;7.97;;
7316;SDS011;3699;51.462;6.696;2023-05-10T12:22:43;8.93;;;6.97;;
7316;SDS011;3699;51.462;6.696;2023-05-10T12:25:16;12.30;;;8.43;;
7316;SDS011;3699;51.462;6.696;2023-05-10T12:27:50;11.70;;;8.40;;
7316;SDS011;3699;51.462;6.696;2023-05-10T12:30:21;8.77;;;6.97;;
7316;SDS011;3699;51.462;6.696;2023-05-10T12:32:49;11.83;;;7.87;;
7316;SDS011;3699;51.462;6.696;2023-05-10T12:35:16;9.50;;;8.30;;
7316;SDS011;3699;51.462;6.696;2023-05-10T12:37:45;11.33;;;7.50;;
7316;SDS011;3699;51.462;6.696;2023-05-10T12:40:12;9.30;;;8.03;;
7316;SDS011;3699;51.462;6.696;2023-05-10T12:42:41;7.70;;;6.60;;
7316;SDS011;3699;51.462;6.696;2023-05-10T12:45:10;12.03;;;7.27;;
7316;SDS011;3699;51.462;6.696;2023-05-10T12:47:37;9.67;;;6.80;;
7316;SDS011;3699;51.462;6.696;2023-05-10T12:50:05;8.63;;;6.93;;
7316;SDS011;3699;51.462;6.696;2023-05-10T12:52:32;9.07;;;6.83;;
7316;SDS011;3699;51.462;6.696;2023-05-10T12:54:59;9.93;;;6.50;;
7316;SDS011;3699;51.462;6.696;2023-05-10T12:57:26;7.37;;;6.60;;
7316;SDS011;3699;51.462;6.696;2023-05-10T12:59:54;8.97;;;6.83;;
7316;SDS011;3699;51.462;6.696;2023-05-10T13:02:21;8.63;;;7.00;;
7316;SDS011;3699;51.462;6.696;2023-05-10T13:04:48;8.00;;;7.20;;
7316;SDS011;3699;51.462;6.696;2023-05-10T13:07:15;12.10;;;6.87;;
7316;SDS011;3699;51.462;6.696;2023-05-10T13:09:42;8.93;;;6.57;;
7316;SDS011;3699;51.462;6.696;2023-05-10T13:12:09;11.37;;;6.20;;
7316;SDS011;3699;51.462;6.696;2023-05-10T13:14:36;6.40;;;5.23;;
7316;SDS011;3699;51.462;6.696;2023-05-10T13:17:06;8.87;;;5.80;;
7316;SDS011;3699;51.462;6.696;2023-05-10T13:19:33;11.47;;;7.30;;
7316;SDS011;3699;51.462;6.696;2023-05-10T13:22:00;6.60;;;5.73;;
7316;SDS011;3699;51.462;6.696;2023-05-10T13:24:27;6.63;;;5.70;;
7316;SDS011;3699;51.462;6.696;2023-05-10T13:26:54;7.27;;;5.93;;
7316;SDS011;3699;51.462;6.696;2023-05-10T13:29:20;7.40;;;6.33;;
7316;SDS011;3699;51.462;6.696;2023-05-10T13:31:47;6.40;;;5.47;;
7316;SDS011;3699;51.462;6.696;2023-05-10T13:34:16;6.43;;;5.40;;
7316;SDS011;3699;51.462;6.696;2023-05-10T13:36:45;6.87;;;5.30;;
7316;SDS011;3699;51.462;6.696;2023-05-10T13:39:12;6.10;;;4.83;;
7316;SDS011;3699;51.462;6.696;2023-05-10T13:41:39;8.60;;;6.70;;
7316;SDS011;3699;51.462;6.696;2023-05-10T13:44:06;14.80;;;8.53;;
7316;SDS011;3699;51.462;6.696;2023-05-10T13:46:33;10.80;;;8.57;;
7316;SDS011;3699;51.462;6.696;2023-05-10T13:49:00;10.40;;;8.57;;
7316;SDS011;3699;51.462;6.696;2023-05-10T13:51:28;10.77;;;9.13;;
7316;SDS011;3699;51.462;6.696;2023-05-10T13:53:56;9.67;;;8.20;;
7316;SDS011;3699;51.462;6.696;2023-05-10T13:56:23;12.83;;;9.20;;
7316;SDS011;3699;51.462;6.696;2023-05-10T13:58:50;9.90;;;8.57;;
7316;SDS011;3699;51.462;6.696;2023-05-10T14:01:17;10.93;;;9.23;;
7316;SDS011;3699;51.462;6.696;2023-05-10T14:03:44;12.00;;;9.67;;
7316;SDS011;3699;51.462;6.696;2023-05-10T14:06:11;11.47;;;9.37;;
7316;SDS011;3699;51.462;6.696;2023-05-10T14:08:39;10.00;;;8.37;;
7316;SDS011;3699;51.462;6.696;2023-05-10T14:11:07;21.80;;;8.97;;
7316;SDS011;3699;51.462;6.696;2023-05-10T14:13:34;9.23;;;8.03;;
7316;SDS011;3699;51.462;6.696;2023-05-10T14:16:00;11.53;;;8.23;;
7316;SDS011;3699;51.462;6.696;2023-05-10T14:18:27;11.80;;;8.10;;
7316;SDS011;3699;51.462;6.696;2023-05-10T14:20:54;10.23;;;7.60;;
7316;SDS011;3699;51.462;6.696;2023-05-10T14:23:21;9.10;;;7.43;;
7316;SDS011;3699;51.462;6.696;2023-05-10T14:25:52;12.63;;;7.80;;
7316;SDS011;3699;51.462;6.696;2023-05-10T14:28:19;7.13;;;6.40;;
7316;SDS011;3699;51.462;6.696;2023-05-10T14:30:47;8.20;;;6.30;;
7316;SDS011;3699;51.462;6.696;2023-05-10T14:33:14;9.80;;;7.53;;
7316;SDS011;3699;51.462;6.696;2023-05-10T14:35:41;13.50;;;8.93;;
7316;SDS011;3699;51.462;6.696;2023-05-10T14:38:07;11.73;;;9.00;;
7316;SDS011;3699;51.462;6.696;2023-05-10T14:40:35;15.20;;;9.80;;
7316;SDS011;3699;51.462;6.696;2023-05-10T14:43:03;18.40;;;10.60;;
7316;SDS011;3699;51.462;6.696;2023-05-10T14:45:30;17.57;;;11.43;;
7316;SDS011;3699;51.462;6.696;2023-05-10T14:47:57;17.13;;;11.83;;
7316;SDS011;3699;51.462;6.696;2023-05-10T14:50:24;17.27;;;11.87;;
7316;SDS011;3699;51.462;6.696;2023-05-10T14:52:51;18.70;;;13.47;;
7316;SDS011;3699;51.462;6.696;2023-05-10T14:55:18;18.47;;;11.87;;
7316;SDS011;3699;51.462;6.696;2023-05-10T14:57:45;14.93;;;11.90;;
7316;SDS011;3699;51.462;6.696;2023-05-10T15:00:16;17.30;;;11.67;;
7316;SDS011;3699;51.462;6.696;2023-05-10T15:02:44;18.47;;;11.53;;
7316;SDS011;3699;51.462;6.696;2023-05-10T15:05:11;16.70;;;11.03;;
7316;SDS011;3699;51.462;6.696;2023-05-10T15:07:37;15.63;;;11.00;;
7316;SDS011;3699;51.462;6.696;2023-05-10T15:10:05;14.37;;;10.53;;